sensor_id;sensor_type;location;lat;lon;timestamp;P1;durP1;ratioP1;P2;durP2;ratioP2
20739;SDS011;10530;49.968;19.844;2022-10-30T00:00:20;33.93;;;14.63;;
20739;SDS011;10530;49.968;19.844;2022-10-30T00:05:23;39.72;;;15.20;;
20739;SDS011;10530;49.968;19.844;2022-10-30T00:10:26;44.77;;;14.87;;
20739;SDS011;10530;49.968;19.844;2022-10-30T00:15:29;39.45;;;14.88;;
20739;SDS011;10530;49.968;19.844;2022-10-30T00:20:32;39.03;;;14.77;;
20739;SDS011;10530;49.968;19.844;2022-10-30T00:25:38;37.90;;;14.57;;
20739;SDS011;10530;49.968;19.844;2022-10-30T00:30:41;42.42;;;15.75;;
20739;SDS011;10530;49.968;19.844;2022-10-30T00:35:47;37.30;;;13.50;;
20739;SDS011;10530;49.968;19.844;2022-10-30T00:40:50;39.60;;;15.23;;
20739;SDS011;10530;49.968;19.844;2022-10-30T00:45:53;36.53;;;14.63;;
20739;SDS011;10530;49.968;19.844;2022-10-30T00:50:59;37.67;;;14.10;;
20739;SDS011;10530;49.968;19.844;2022-10-30T00:56:04;34.17;;;14.65;;
20739;SDS011;10530;49.968;19.844;2022-10-30T01:01:10;38.33;;;13.50;;
20739;SDS011;10530;49.968;19.844;2022-10-30T01:06:19;39.55;;;13.95;;
20739;SDS011;10530;49.968;19.844;2022-10-30T01:11:22;35.08;;;13.90;;
20739;SDS011;10530;49.968;19.844;2022-10-30T01:32:41;35.58;;;13.27;;
20739;SDS011;10530;49.968;19.844;2022-10-30T01:38:09;30.70;;;13.13;;
20739;SDS011;10530;49.968;19.844;2022-10-30T01:43:13;30.97;;;13.60;;
20739;SDS011;10530;49.968;19.844;2022-10-30T01:53:29;33.83;;;13.13;;
20739;SDS011;10530;49.968;19.844;2022-10-30T02:04:15;32.85;;;11.90;;
20739;SDS011;10530;49.968;19.844;2022-10-30T02:09:18;30.13;;;12.70;;
20739;SDS011;10530;49.968;19.844;2022-10-30T02:14:26;36.30;;;14.02;;
20739;SDS011;10530;49.968;19.844;2022-10-30T02:19:32;29.07;;;12.37;;
20739;SDS011;10530;49.968;19.844;2022-10-30T02:24:36;30.80;;;12.25;;
20739;SDS011;10530;49.968;19.844;2022-10-30T02:29:40;27.60;;;11.95;;
20739;SDS011;10530;49.968;19.844;2022-10-30T02:34:43;31.53;;;12.37;;
20739;SDS011;10530;49.968;19.844;2022-10-30T02:39:47;33.15;;;12.75;;
20739;SDS011;10530;49.968;19.844;2022-10-30T02:44:50;33.13;;;13.87;;
20739;SDS011;10530;49.968;19.844;2022-10-30T02:49:52;35.55;;;13.93;;
20739;SDS011;10530;49.968;19.844;2022-10-30T02:54:55;33.88;;;14.32;;
20739;SDS011;10530;49.968;19.844;2022-10-30T02:59:58;32.50;;;13.93;;
20739;SDS011;10530;49.968;19.844;2022-10-30T03:05:01;31.40;;;13.57;;
20739;SDS011;10530;49.968;19.844;2022-10-30T03:10:04;30.80;;;13.30;;
20739;SDS011;10530;49.968;19.844;2022-10-30T03:15:07;34.97;;;14.55;;
20739;SDS011;10530;49.968;19.844;2022-10-30T03:20:10;34.97;;;14.13;;
20739;SDS011;10530;49.968;19.844;2022-10-30T03:25:13;38.47;;;14.07;;
20739;SDS011;10530;49.968;19.844;2022-10-30T03:30:16;39.83;;;13.43;;
20739;SDS011;10530;49.968;19.844;2022-10-30T03:35:18;35.50;;;12.93;;
20739;SDS011;10530;49.968;19.844;2022-10-30T03:40:21;32.45;;;13.65;;
20739;SDS011;10530;49.968;19.844;2022-10-30T03:45:24;32.40;;;12.57;;
20739;SDS011;10530;49.968;19.844;2022-10-30T03:50:26;28.73;;;12.13;;
20739;SDS011;10530;49.968;19.844;2022-10-30T03:55:29;32.45;;;12.98;;
20739;SDS011;10530;49.968;19.844;2022-10-30T04:00:32;31.37;;;11.63;;
20739;SDS011;10530;49.968;19.844;2022-10-30T04:05:37;33.78;;;12.65;;
20739;SDS011;10530;49.968;19.844;2022-10-30T04:10:44;33.85;;;11.30;;
20739;SDS011;10530;49.968;19.844;2022-10-30T04:15:47;31.17;;;12.50;;
20739;SDS011;10530;49.968;19.844;2022-10-30T04:20:59;26.38;;;11.85;;
20739;SDS011;10530;49.968;19.844;2022-10-30T04:26:02;30.93;;;11.23;;
20739;SDS011;10530;49.968;19.844;2022-10-30T04:31:05;27.73;;;11.52;;
20739;SDS011;10530;49.968;19.844;2022-10-30T04:36:08;32.38;;;11.20;;
20739;SDS011;10530;49.968;19.844;2022-10-30T04:41:10;28.80;;;11.80;;
20739;SDS011;10530;49.968;19.844;2022-10-30T04:46:27;32.58;;;12.35;;
20739;SDS011;10530;49.968;19.844;2022-10-30T04:51:36;29.67;;;12.60;;
20739;SDS011;10530;49.968;19.844;2022-10-30T04:56:41;27.58;;;11.07;;
20739;SDS011;10530;49.968;19.844;2022-10-30T05:01:44;29.58;;;11.35;;
20739;SDS011;10530;49.968;19.844;2022-10-30T05:06:47;32.17;;;11.07;;
20739;SDS011;10530;49.968;19.844;2022-10-30T05:11:50;28.08;;;11.23;;
20739;SDS011;10530;49.968;19.844;2022-10-30T05:16:59;29.83;;;11.53;;
20739;SDS011;10530;49.968;19.844;2022-10-30T05:22:02;31.00;;;11.95;;
20739;SDS011;10530;49.968;19.844;2022-10-30T05:27:05;29.52;;;11.45;;
20739;SDS011;10530;49.968;19.844;2022-10-30T05:32:09;30.80;;;11.97;;
20739;SDS011;10530;49.968;19.844;2022-10-30T05:37:20;28.27;;;11.38;;
20739;SDS011;10530;49.968;19.844;2022-10-30T05:42:23;32.03;;;12.07;;
20739;SDS011;10530;49.968;19.844;2022-10-30T05:47:27;32.67;;;12.60;;
20739;SDS011;10530;49.968;19.844;2022-10-30T05:52:31;31.75;;;12.30;;
20739;SDS011;10530;49.968;19.844;2022-10-30T05:57:34;26.93;;;10.47;;
20739;SDS011;10530;49.968;19.844;2022-10-30T06:02:37;27.23;;;10.10;;
20739;SDS011;10530;49.968;19.844;2022-10-30T06:07:40;25.23;;;10.53;;
20739;SDS011;10530;49.968;19.844;2022-10-30T06:12:50;32.90;;;11.75;;
20739;SDS011;10530;49.968;19.844;2022-10-30T06:18:17;29.98;;;11.10;;
20739;SDS011;10530;49.968;19.844;2022-10-30T06:23:26;32.33;;;11.97;;
20739;SDS011;10530;49.968;19.844;2022-10-30T06:28:34;25.70;;;11.38;;
20739;SDS011;10530;49.968;19.844;2022-10-30T06:33:37;30.30;;;11.97;;
20739;SDS011;10530;49.968;19.844;2022-10-30T06:38:40;26.67;;;11.52;;
20739;SDS011;10530;49.968;19.844;2022-10-30T06:43:47;33.25;;;12.20;;
20739;SDS011;10530;49.968;19.844;2022-10-30T06:48:55;27.97;;;11.07;;
20739;SDS011;10530;49.968;19.844;2022-10-30T06:55:04;27.43;;;10.40;;
20739;SDS011;10530;49.968;19.844;2022-10-30T07:00:26;31.08;;;11.10;;
20739;SDS011;10530;49.968;19.844;2022-10-30T07:05:47;24.48;;;11.20;;
20739;SDS011;10530;49.968;19.844;2022-10-30T07:10:50;25.93;;;10.47;;
20739;SDS011;10530;49.968;19.844;2022-10-30T07:16:09;26.35;;;10.65;;
20739;SDS011;10530;49.968;19.844;2022-10-30T07:21:15;26.30;;;9.93;;
20739;SDS011;10530;49.968;19.844;2022-10-30T07:26:19;28.63;;;11.82;;
20739;SDS011;10530;49.968;19.844;2022-10-30T07:31:22;31.92;;;12.55;;
20739;SDS011;10530;49.968;19.844;2022-10-30T07:37:01;32.90;;;12.20;;
20739;SDS011;10530;49.968;19.844;2022-10-30T07:42:17;30.27;;;12.35;;
20739;SDS011;10530;49.968;19.844;2022-10-30T07:47:41;38.60;;;14.03;;
20739;SDS011;10530;49.968;19.844;2022-10-30T07:53:03;31.50;;;12.85;;
20739;SDS011;10530;49.968;19.844;2022-10-30T07:58:07;27.02;;;11.43;;
20739;SDS011;10530;49.968;19.844;2022-10-30T08:03:45;26.63;;;10.20;;
20739;SDS011;10530;49.968;19.844;2022-10-30T08:09:01;26.85;;;10.52;;
20739;SDS011;10530;49.968;19.844;2022-10-30T08:14:04;22.13;;;9.87;;
20739;SDS011;10530;49.968;19.844;2022-10-30T08:19:07;21.25;;;9.93;;
20739;SDS011;10530;49.968;19.844;2022-10-30T08:24:10;24.08;;;11.30;;
20739;SDS011;10530;49.968;19.844;2022-10-30T08:29:16;29.40;;;11.30;;
20739;SDS011;10530;49.968;19.844;2022-10-30T08:34:21;31.92;;;12.15;;
20739;SDS011;10530;49.968;19.844;2022-10-30T08:39:26;24.23;;;11.10;;
20739;SDS011;10530;49.968;19.844;2022-10-30T08:44:55;23.08;;;10.32;;
20739;SDS011;10530;49.968;19.844;2022-10-30T08:50:01;21.13;;;10.13;;
20739;SDS011;10530;49.968;19.844;2022-10-30T08:55:06;21.20;;;10.13;;
20739;SDS011;10530;49.968;19.844;2022-10-30T09:00:09;25.23;;;11.10;;
20739;SDS011;10530;49.968;19.844;2022-10-30T09:05:36;21.77;;;9.80;;
20739;SDS011;10530;49.968;19.844;2022-10-30T09:10:55;23.30;;;9.90;;
20739;SDS011;10530;49.968;19.844;2022-10-30T09:15:59;19.55;;;10.18;;
20739;SDS011;10530;49.968;19.844;2022-10-30T09:21:06;14.87;;;8.43;;
20739;SDS011;10530;49.968;19.844;2022-10-30T09:26:17;18.98;;;8.80;;
20739;SDS011;10530;49.968;19.844;2022-10-30T09:31:29;16.33;;;8.60;;
20739;SDS011;10530;49.968;19.844;2022-10-30T09:36:33;20.42;;;9.02;;
20739;SDS011;10530;49.968;19.844;2022-10-30T09:52:30;20.73;;;8.13;;
20739;SDS011;10530;49.968;19.844;2022-10-30T10:03:02;16.83;;;8.00;;
20739;SDS011;10530;49.968;19.844;2022-10-30T10:08:54;19.08;;;8.93;;
20739;SDS011;10530;49.968;19.844;2022-10-30T10:14:19;13.40;;;7.97;;
20739;SDS011;10530;49.968;19.844;2022-10-30T10:19:32;16.40;;;8.70;;
20739;SDS011;10530;49.968;19.844;2022-10-30T10:24:41;18.00;;;8.20;;
20739;SDS011;10530;49.968;19.844;2022-10-30T10:29:52;21.42;;;8.65;;
20739;SDS011;10530;49.968;19.844;2022-10-30T10:35:22;18.10;;;8.32;;
20739;SDS011;10530;49.968;19.844;2022-10-30T10:46:13;14.55;;;8.20;;
20739;SDS011;10530;49.968;19.844;2022-10-30T10:51:40;15.53;;;8.10;;
20739;SDS011;10530;49.968;19.844;2022-10-30T10:56:47;17.92;;;8.27;;
20739;SDS011;10530;49.968;19.844;2022-10-30T11:07:36;15.67;;;7.70;;
20739;SDS011;10530;49.968;19.844;2022-10-30T11:12:46;13.23;;;7.63;;
20739;SDS011;10530;49.968;19.844;2022-10-30T11:17:51;14.27;;;6.83;;
20739;SDS011;10530;49.968;19.844;2022-10-30T11:28:40;13.18;;;6.40;;
20739;SDS011;10530;49.968;19.844;2022-10-30T11:33:51;12.97;;;6.33;;
20739;SDS011;10530;49.968;19.844;2022-10-30T11:38:55;15.75;;;6.70;;
20739;SDS011;10530;49.968;19.844;2022-10-30T11:44:10;15.23;;;6.67;;
20739;SDS011;10530;49.968;19.844;2022-10-30T11:54:39;14.02;;;5.68;;
20739;SDS011;10530;49.968;19.844;2022-10-30T11:59:52;12.77;;;6.37;;
20739;SDS011;10530;49.968;19.844;2022-10-30T12:10:44;13.37;;;5.97;;
20739;SDS011;10530;49.968;19.844;2022-10-30T12:16:08;14.70;;;6.00;;
20739;SDS011;10530;49.968;19.844;2022-10-30T12:21:17;13.30;;;5.95;;
20739;SDS011;10530;49.968;19.844;2022-10-30T12:26:21;12.37;;;5.07;;
20739;SDS011;10530;49.968;19.844;2022-10-30T12:31:40;12.30;;;5.00;;
20739;SDS011;10530;49.968;19.844;2022-10-30T12:37:08;12.47;;;4.80;;
20739;SDS011;10530;49.968;19.844;2022-10-30T12:42:20;11.57;;;4.60;;
20739;SDS011;10530;49.968;19.844;2022-10-30T12:47:27;9.85;;;4.38;;
20739;SDS011;10530;49.968;19.844;2022-10-30T12:52:34;12.50;;;4.63;;
20739;SDS011;10530;49.968;19.844;2022-10-30T13:02:59;14.10;;;4.57;;
20739;SDS011;10530;49.968;19.844;2022-10-30T13:08:51;13.55;;;4.82;;
20739;SDS011;10530;49.968;19.844;2022-10-30T13:13:52;10.63;;;4.88;;
20739;SDS011;10530;49.968;19.844;2022-10-30T13:18:59;14.33;;;5.10;;
20739;SDS011;10530;49.968;19.844;2022-10-30T13:24:10;11.93;;;4.95;;
20739;SDS011;10530;49.968;19.844;2022-10-30T13:46:02;11.63;;;4.43;;
20739;SDS011;10530;49.968;19.844;2022-10-30T13:56:16;11.47;;;4.30;;
20739;SDS011;10530;49.968;19.844;2022-10-30T14:01:22;9.60;;;3.97;;
20739;SDS011;10530;49.968;19.844;2022-10-30T14:11:34;9.77;;;3.60;;
20739;SDS011;10530;49.968;19.844;2022-10-30T14:16:44;10.95;;;3.65;;
20739;SDS011;10530;49.968;19.844;2022-10-30T14:21:54;7.23;;;3.40;;
20739;SDS011;10530;49.968;19.844;2022-10-30T14:42:29;9.95;;;3.40;;
20739;SDS011;10530;49.968;19.844;2022-10-30T14:58:15;11.50;;;4.00;;
20739;SDS011;10530;49.968;19.844;2022-10-30T15:04:26;11.47;;;4.90;;
20739;SDS011;10530;49.968;19.844;2022-10-30T15:14:31;10.03;;;4.33;;
20739;SDS011;10530;49.968;19.844;2022-10-30T15:19:54;10.82;;;4.72;;
20739;SDS011;10530;49.968;19.844;2022-10-30T15:24:59;11.35;;;4.28;;
20739;SDS011;10530;49.968;19.844;2022-10-30T15:30:04;11.30;;;4.20;;
20739;SDS011;10530;49.968;19.844;2022-10-30T15:40:25;11.47;;;4.57;;
20739;SDS011;10530;49.968;19.844;2022-10-30T15:45:35;14.05;;;5.03;;
20739;SDS011;10530;49.968;19.844;2022-10-30T15:50:41;12.13;;;4.57;;
20739;SDS011;10530;49.968;19.844;2022-10-30T15:55:46;12.90;;;4.73;;
20739;SDS011;10530;49.968;19.844;2022-10-30T16:00:57;10.95;;;4.75;;
20739;SDS011;10530;49.968;19.844;2022-10-30T16:06:05;12.80;;;5.00;;
20739;SDS011;10530;49.968;19.844;2022-10-30T16:11:18;11.80;;;4.57;;
20739;SDS011;10530;49.968;19.844;2022-10-30T16:16:25;13.60;;;4.80;;
20739;SDS011;10530;49.968;19.844;2022-10-30T16:21:30;12.53;;;4.57;;
20739;SDS011;10530;49.968;19.844;2022-10-30T16:26:34;11.88;;;5.03;;
20739;SDS011;10530;49.968;19.844;2022-10-30T16:31:38;11.37;;;4.50;;
20739;SDS011;10530;49.968;19.844;2022-10-30T16:36:43;12.55;;;5.65;;
20739;SDS011;10530;49.968;19.844;2022-10-30T16:41:46;15.80;;;5.57;;
20739;SDS011;10530;49.968;19.844;2022-10-30T16:46:50;13.37;;;6.37;;
20739;SDS011;10530;49.968;19.844;2022-10-30T16:52:29;13.98;;;6.20;;
20739;SDS011;10530;49.968;19.844;2022-10-30T16:57:37;14.47;;;6.20;;
20739;SDS011;10530;49.968;19.844;2022-10-30T17:02:45;13.38;;;5.38;;
20739;SDS011;10530;49.968;19.844;2022-10-30T17:07:56;14.40;;;5.38;;
20739;SDS011;10530;49.968;19.844;2022-10-30T17:18:33;12.65;;;5.22;;
20739;SDS011;10530;49.968;19.844;2022-10-30T17:23:42;12.07;;;5.17;;
20739;SDS011;10530;49.968;19.844;2022-10-30T17:28:50;13.32;;;5.55;;
20739;SDS011;10530;49.968;19.844;2022-10-30T17:34:13;13.57;;;5.88;;
20739;SDS011;10530;49.968;19.844;2022-10-30T17:39:16;11.70;;;5.40;;
20739;SDS011;10530;49.968;19.844;2022-10-30T17:44:20;12.95;;;6.05;;
20739;SDS011;10530;49.968;19.844;2022-10-30T17:49:28;17.10;;;6.73;;
20739;SDS011;10530;49.968;19.844;2022-10-30T17:54:33;14.93;;;6.32;;
20739;SDS011;10530;49.968;19.844;2022-10-30T17:59:36;17.40;;;6.68;;
20739;SDS011;10530;49.968;19.844;2022-10-30T18:04:40;17.30;;;6.60;;
20739;SDS011;10530;49.968;19.844;2022-10-30T18:09:43;18.95;;;6.95;;
20739;SDS011;10530;49.968;19.844;2022-10-30T18:14:46;18.17;;;6.93;;
20739;SDS011;10530;49.968;19.844;2022-10-30T18:19:49;15.95;;;6.55;;
20739;SDS011;10530;49.968;19.844;2022-10-30T18:24:52;16.50;;;6.68;;
20739;SDS011;10530;49.968;19.844;2022-10-30T18:29:55;15.53;;;6.13;;
20739;SDS011;10530;49.968;19.844;2022-10-30T18:34:58;20.42;;;6.30;;
20739;SDS011;10530;49.968;19.844;2022-10-30T18:40:01;17.80;;;6.33;;
20739;SDS011;10530;49.968;19.844;2022-10-30T18:45:10;20.17;;;6.75;;
20739;SDS011;10530;49.968;19.844;2022-10-30T18:57:37;21.17;;;8.37;;
20739;SDS011;10530;49.968;19.844;2022-10-30T19:02:40;17.65;;;7.90;;
20739;SDS011;10530;49.968;19.844;2022-10-30T19:07:43;18.70;;;7.93;;
20739;SDS011;10530;49.968;19.844;2022-10-30T19:12:46;17.13;;;7.35;;
20739;SDS011;10530;49.968;19.844;2022-10-30T19:18:09;18.45;;;7.70;;
20739;SDS011;10530;49.968;19.844;2022-10-30T19:23:30;19.00;;;7.37;;
20739;SDS011;10530;49.968;19.844;2022-10-30T19:28:33;16.05;;;7.43;;
20739;SDS011;10530;49.968;19.844;2022-10-30T19:33:36;17.67;;;7.63;;
20739;SDS011;10530;49.968;19.844;2022-10-30T19:38:39;19.00;;;8.27;;
20739;SDS011;10530;49.968;19.844;2022-10-30T19:43:41;17.15;;;7.80;;
20739;SDS011;10530;49.968;19.844;2022-10-30T19:48:44;20.97;;;8.20;;
20739;SDS011;10530;49.968;19.844;2022-10-30T19:54:02;17.88;;;7.72;;
20739;SDS011;10530;49.968;19.844;2022-10-30T19:59:12;19.73;;;7.63;;
20739;SDS011;10530;49.968;19.844;2022-10-30T20:04:15;17.92;;;7.43;;
20739;SDS011;10530;49.968;19.844;2022-10-30T20:09:18;18.30;;;7.72;;
20739;SDS011;10530;49.968;19.844;2022-10-30T20:14:21;18.83;;;7.23;;
20739;SDS011;10530;49.968;19.844;2022-10-30T20:19:27;21.95;;;8.77;;
20739;SDS011;10530;49.968;19.844;2022-10-30T20:24:32;20.63;;;7.47;;
20739;SDS011;10530;49.968;19.844;2022-10-30T20:29:35;21.73;;;9.55;;
20739;SDS011;10530;49.968;19.844;2022-10-30T20:34:39;21.75;;;9.90;;
20739;SDS011;10530;49.968;19.844;2022-10-30T20:39:42;30.13;;;13.30;;
20739;SDS011;10530;49.968;19.844;2022-10-30T20:44:45;30.77;;;12.48;;
20739;SDS011;10530;49.968;19.844;2022-10-30T20:49:48;22.07;;;9.53;;
20739;SDS011;10530;49.968;19.844;2022-10-30T20:54:50;28.17;;;10.85;;
20739;SDS011;10530;49.968;19.844;2022-10-30T20:59:53;22.58;;;9.45;;
20739;SDS011;10530;49.968;19.844;2022-10-30T21:04:56;22.40;;;9.00;;
20739;SDS011;10530;49.968;19.844;2022-10-30T21:10:19;18.35;;;8.68;;
20739;SDS011;10530;49.968;19.844;2022-10-30T21:15:22;20.80;;;9.03;;
20739;SDS011;10530;49.968;19.844;2022-10-30T21:20:25;20.60;;;8.82;;
20739;SDS011;10530;49.968;19.844;2022-10-30T21:25:27;22.90;;;9.55;;
20739;SDS011;10530;49.968;19.844;2022-10-30T21:30:33;23.53;;;9.43;;
20739;SDS011;10530;49.968;19.844;2022-10-30T21:35:36;18.77;;;8.57;;
20739;SDS011;10530;49.968;19.844;2022-10-30T21:40:39;35.83;;;8.90;;
20739;SDS011;10530;49.968;19.844;2022-10-30T21:45:42;22.05;;;7.78;;
20739;SDS011;10530;49.968;19.844;2022-10-30T21:50:45;20.70;;;9.32;;
20739;SDS011;10530;49.968;19.844;2022-10-30T21:55:47;25.43;;;10.57;;
20739;SDS011;10530;49.968;19.844;2022-10-30T22:00:50;26.10;;;10.15;;
20739;SDS011;10530;49.968;19.844;2022-10-30T22:05:53;27.47;;;11.70;;
20739;SDS011;10530;49.968;19.844;2022-10-30T22:11:00;31.65;;;12.73;;
20739;SDS011;10530;49.968;19.844;2022-10-30T22:16:09;37.00;;;13.63;;
20739;SDS011;10530;49.968;19.844;2022-10-30T22:21:13;29.93;;;13.07;;
20739;SDS011;10530;49.968;19.844;2022-10-30T22:26:16;34.03;;;14.45;;
20739;SDS011;10530;49.968;19.844;2022-10-30T22:31:22;41.93;;;15.37;;
20739;SDS011;10530;49.968;19.844;2022-10-30T22:36:27;39.22;;;15.82;;
20739;SDS011;10530;49.968;19.844;2022-10-30T22:41:33;38.38;;;15.45;;
20739;SDS011;10530;49.968;19.844;2022-10-30T22:46:39;44.40;;;16.27;;
20739;SDS011;10530;49.968;19.844;2022-10-30T22:51:42;45.58;;;17.13;;
20739;SDS011;10530;49.968;19.844;2022-10-30T22:56:45;46.83;;;17.67;;
20739;SDS011;10530;49.968;19.844;2022-10-30T23:01:48;55.28;;;18.50;;
20739;SDS011;10530;49.968;19.844;2022-10-30T23:06:51;40.10;;;15.95;;
20739;SDS011;10530;49.968;19.844;2022-10-30T23:11:53;42.17;;;15.80;;
20739;SDS011;10530;49.968;19.844;2022-10-30T23:16:56;41.00;;;15.75;;
20739;SDS011;10530;49.968;19.844;2022-10-30T23:21:59;37.70;;;15.67;;
20739;SDS011;10530;49.968;19.844;2022-10-30T23:27:01;33.08;;;14.25;;
20739;SDS011;10530;49.968;19.844;2022-10-30T23:32:05;33.47;;;13.77;;
20739;SDS011;10530;49.968;19.844;2022-10-30T23:37:07;37.03;;;14.17;;
20739;SDS011;10530;49.968;19.844;2022-10-30T23:42:10;36.67;;;14.15;;
20739;SDS011;10530;49.968;19.844;2022-10-30T23:47:13;34.23;;;12.53;;
20739;SDS011;10530;49.968;19.844;2022-10-30T23:52:16;32.63;;;12.57;;
20739;SDS011;10530;49.968;19.844;2022-10-30T23:57:19;35.25;;;13.88;;
